Strona główna
METAR-TAF:

METAR-TAF

Lotnisko :

Port lotniczy Waterford

Waterford, Irlandia

Szerokość geograficzna: 52-11-14N, Długość geograficzna: 7-05-13W, wysokość: 36 m

Aktualna obserwacja pogody

Raport powstał 48 minut temu, godzina 07:30 UTC
Wiatr 5 kt od południe, zmienny między południowo-południowy wschód i południowo-południowy zachód
Temperatura 8°C
Wilgotność 100%
Ciśnienie 1027 hPa
Widzialność 10 km lub więcej
Brak chmur poniżej 1500 m i brak chmur cumulonimbus

METAR: EIWF 070730Z 18005KT 150V210 CAVOK 08/08 Q1027

czas: 09:18 (08:18 UTC)

Prognoza

Raport powstał 3 godziny i 18 minut temu, godzina 05:00 UTC
Prognoza ważna od 07 godzina 06 UTC do 07 godzina 15 UTC
Wiatr 3 kt z kierunków zmiennych
Widzialność: 0100 m
Przerywane chmury na wysokości 100 ft
mgła
Stopniowe zmiany
od 07 godzina 06 UTC do 07 godzina 08 UTC
Wiatr 10 kt od południowo-południowy wschód
Widzialność 10 km lub więcej
Mało chmury na wysokości 2000 ft

TAF: EIWF 070500Z 0706/0715 VRB03KT 0100 FG BKN001 BECMG 0706/0708 16010KT 9999 NSW FEW020

Obserwacja i prognoza pogody dla ponad 4000 lotnisk (raport METAR i TAF).

Dostępne stacje oznaczono żółtymi i czerwonymi punktami na mapie.

Najedź kursorem aby zobaczyć nazwę stacji.

Kliknij aby zobaczyć obserwacje i prognozy pogody.

Aby zmienić mapę: kliknij na zielony przycisk z czarnym krzyżykiem, aby powiększyć; na zielony przycisk z myślnikiem, aby pomniejszyć; na zielone strzałki, aby przejść do map sąsiednich.


METAR-TAF: